Terminal Aerodrome Forecast
Issued by NWS Sioux Falls, SD

Home | Current Version | Previous Version | Text Only | Print | Product List | Glossary On
Versions: 1 2 3 4 5 6 7 8 9 10 11 12 13 14 15 16 17 18 19 20 21 22 23 24 25 26
000
FTUS43 KFSD 231700
TAFFSD
TAF
KFSD 231731Z 2318/2418 07005KT P6SM FEW045
     FM240100 10005KT P6SM SKC
     FM240900 13008KT P6SM BKN120
      TEMPO 2410/2414 P6SM TSRA BKN050CB
     FM241500 16015G24KT P6SM BKN100=

USA.gov is the U.S. government's official web portal to all federal, state and local government web resources and services.